sensor_id;sensor_type;location;lat;lon;timestamp;temperature;humidity
42979;DHT22;28616;44.746;19.678;2023-04-03T00:00:28;10.10;99.90
42979;DHT22;28616;44.746;19.678;2023-04-03T00:02:54;10.00;99.90
42979;DHT22;28616;44.746;19.678;2023-04-03T00:05:20;9.80;99.90
42979;DHT22;28616;44.746;19.678;2023-04-03T00:07:46;9.70;99.90
42979;DHT22;28616;44.746;19.678;2023-04-03T00:10:11;9.60;99.90
42979;DHT22;28616;44.746;19.678;2023-04-03T00:12:37;9.50;99.90
42979;DHT22;28616;44.746;19.678;2023-04-03T00:15:04;9.40;99.90
42979;DHT22;28616;44.746;19.678;2023-04-03T00:17:29;9.30;99.90
42979;DHT22;28616;44.746;19.678;2023-04-03T00:19:55;9.10;99.90
42979;DHT22;28616;44.746;19.678;2023-04-03T00:22:21;9.10;99.90
42979;DHT22;28616;44.746;19.678;2023-04-03T00:24:47;9.00;99.90
42979;DHT22;28616;44.746;19.678;2023-04-03T00:27:12;9.00;99.90
42979;DHT22;28616;44.746;19.678;2023-04-03T00:29:38;8.90;99.90
42979;DHT22;28616;44.746;19.678;2023-04-03T00:32:04;8.90;99.90
42979;DHT22;28616;44.746;19.678;2023-04-03T00:34:30;8.90;99.90
42979;DHT22;28616;44.746;19.678;2023-04-03T00:36:57;8.90;99.90
42979;DHT22;28616;44.746;19.678;2023-04-03T00:39:22;8.90;99.90
42979;DHT22;28616;44.746;19.678;2023-04-03T00:41:48;8.90;99.90
42979;DHT22;28616;44.746;19.678;2023-04-03T00:44:22;8.80;99.90
42979;DHT22;28616;44.746;19.678;2023-04-03T00:46:48;8.70;99.90
42979;DHT22;28616;44.746;19.678;2023-04-03T00:49:14;8.60;99.90
42979;DHT22;28616;44.746;19.678;2023-04-03T00:51:40;8.60;99.90
42979;DHT22;28616;44.746;19.678;2023-04-03T00:54:07;8.50;99.90
42979;DHT22;28616;44.746;19.678;2023-04-03T00:56:33;8.40;99.90
42979;DHT22;28616;44.746;19.678;2023-04-03T00:59:12;8.30;99.90
42979;DHT22;28616;44.746;19.678;2023-04-03T01:01:38;8.30;99.90
42979;DHT22;28616;44.746;19.678;2023-04-03T01:04:05;8.20;99.90
42979;DHT22;28616;44.746;19.678;2023-04-03T01:06:36;8.20;99.90
42979;DHT22;28616;44.746;19.678;2023-04-03T01:09:03;8.10;99.90
42979;DHT22;28616;44.746;19.678;2023-04-03T01:11:30;8.00;99.90
42979;DHT22;28616;44.746;19.678;2023-04-03T01:13:55;8.00;99.90
42979;DHT22;28616;44.746;19.678;2023-04-03T01:16:21;7.90;99.90
42979;DHT22;28616;44.746;19.678;2023-04-03T01:18:47;7.90;99.90
42979;DHT22;28616;44.746;19.678;2023-04-03T01:24:15;8.00;99.90
42979;DHT22;28616;44.746;19.678;2023-04-03T01:26:43;7.90;99.90
42979;DHT22;28616;44.746;19.678;2023-04-03T01:29:09;7.80;99.90
42979;DHT22;28616;44.746;19.678;2023-04-03T01:34:01;7.80;99.90
42979;DHT22;28616;44.746;19.678;2023-04-03T01:36:30;7.80;99.90
42979;DHT22;28616;44.746;19.678;2023-04-03T01:38:57;7.70;99.90
42979;DHT22;28616;44.746;19.678;2023-04-03T01:41:23;7.60;99.90
42979;DHT22;28616;44.746;19.678;2023-04-03T01:43:49;7.60;99.90
42979;DHT22;28616;44.746;19.678;2023-04-03T01:46:19;7.60;99.90
42979;DHT22;28616;44.746;19.678;2023-04-03T01:48:45;7.70;99.90
42979;DHT22;28616;44.746;19.678;2023-04-03T01:51:11;7.60;99.90
42979;DHT22;28616;44.746;19.678;2023-04-03T01:53:36;7.60;99.90
42979;DHT22;28616;44.746;19.678;2023-04-03T01:56:03;7.60;99.90
42979;DHT22;28616;44.746;19.678;2023-04-03T01:58:29;7.50;99.90
42979;DHT22;28616;44.746;19.678;2023-04-03T02:00:54;7.50;99.90
42979;DHT22;28616;44.746;19.678;2023-04-03T02:03:21;7.60;99.90
42979;DHT22;28616;44.746;19.678;2023-04-03T02:05:46;7.60;99.90
42979;DHT22;28616;44.746;19.678;2023-04-03T02:08:12;7.60;99.90
42979;DHT22;28616;44.746;19.678;2023-04-03T02:10:39;7.50;99.90
42979;DHT22;28616;44.746;19.678;2023-04-03T02:13:05;7.50;99.90
42979;DHT22;28616;44.746;19.678;2023-04-03T02:15:31;7.50;99.90
42979;DHT22;28616;44.746;19.678;2023-04-03T02:17:56;7.60;99.90
42979;DHT22;28616;44.746;19.678;2023-04-03T02:20:22;7.60;99.90
42979;DHT22;28616;44.746;19.678;2023-04-03T02:22:48;7.70;99.90
42979;DHT22;28616;44.746;19.678;2023-04-03T02:25:14;7.60;99.90
42979;DHT22;28616;44.746;19.678;2023-04-03T02:27:40;7.60;99.90
42979;DHT22;28616;44.746;19.678;2023-04-03T02:30:06;7.60;99.90
42979;DHT22;28616;44.746;19.678;2023-04-03T02:32:32;7.60;99.90
42979;DHT22;28616;44.746;19.678;2023-04-03T02:34:58;7.60;99.90
42979;DHT22;28616;44.746;19.678;2023-04-03T02:37:24;7.50;99.90
42979;DHT22;28616;44.746;19.678;2023-04-03T02:39:50;7.50;99.90
42979;DHT22;28616;44.746;19.678;2023-04-03T02:42:15;7.50;99.90
42979;DHT22;28616;44.746;19.678;2023-04-03T02:44:41;7.50;99.90
42979;DHT22;28616;44.746;19.678;2023-04-03T02:47:07;7.50;99.90
42979;DHT22;28616;44.746;19.678;2023-04-03T02:49:33;7.50;99.90
42979;DHT22;28616;44.746;19.678;2023-04-03T02:51:58;7.50;99.90
42979;DHT22;28616;44.746;19.678;2023-04-03T02:54:24;7.50;99.90
42979;DHT22;28616;44.746;19.678;2023-04-03T02:56:54;7.50;99.90
42979;DHT22;28616;44.746;19.678;2023-04-03T02:59:19;7.50;99.90
42979;DHT22;28616;44.746;19.678;2023-04-03T03:01:46;7.50;99.90
42979;DHT22;28616;44.746;19.678;2023-04-03T03:04:11;7.40;99.90
42979;DHT22;28616;44.746;19.678;2023-04-03T03:06:37;7.40;99.90
42979;DHT22;28616;44.746;19.678;2023-04-03T03:09:03;7.30;99.90
42979;DHT22;28616;44.746;19.678;2023-04-03T03:11:29;7.30;99.90
42979;DHT22;28616;44.746;19.678;2023-04-03T03:13:55;7.30;99.90
42979;DHT22;28616;44.746;19.678;2023-04-03T03:16:21;7.30;99.90
42979;DHT22;28616;44.746;19.678;2023-04-03T03:18:47;7.30;99.90
42979;DHT22;28616;44.746;19.678;2023-04-03T03:21:13;7.40;99.90
42979;DHT22;28616;44.746;19.678;2023-04-03T03:23:39;7.40;99.90
42979;DHT22;28616;44.746;19.678;2023-04-03T03:26:07;7.30;99.90
42979;DHT22;28616;44.746;19.678;2023-04-03T03:28:34;7.30;99.90
42979;DHT22;28616;44.746;19.678;2023-04-03T03:31:00;7.20;99.90
42979;DHT22;28616;44.746;19.678;2023-04-03T03:33:26;7.20;99.90
42979;DHT22;28616;44.746;19.678;2023-04-03T03:35:53;7.20;99.90
42979;DHT22;28616;44.746;19.678;2023-04-03T03:38:19;7.20;99.90
42979;DHT22;28616;44.746;19.678;2023-04-03T03:40:47;7.10;99.90
42979;DHT22;28616;44.746;19.678;2023-04-03T03:43:14;7.10;99.90
42979;DHT22;28616;44.746;19.678;2023-04-03T03:45:40;7.10;99.90
42979;DHT22;28616;44.746;19.678;2023-04-03T03:48:06;7.10;99.90
42979;DHT22;28616;44.746;19.678;2023-04-03T03:50:31;7.10;99.90
42979;DHT22;28616;44.746;19.678;2023-04-03T03:52:57;7.10;99.90
42979;DHT22;28616;44.746;19.678;2023-04-03T03:55:23;7.10;99.90
42979;DHT22;28616;44.746;19.678;2023-04-03T03:57:49;7.00;99.90
42979;DHT22;28616;44.746;19.678;2023-04-03T04:00:15;7.00;99.90
42979;DHT22;28616;44.746;19.678;2023-04-03T04:02:42;6.90;99.90
42979;DHT22;28616;44.746;19.678;2023-04-03T04:05:08;6.90;99.90
42979;DHT22;28616;44.746;19.678;2023-04-03T04:07:33;7.00;99.90
42979;DHT22;28616;44.746;19.678;2023-04-03T04:09:59;7.00;99.90
42979;DHT22;28616;44.746;19.678;2023-04-03T04:12:25;6.90;99.90
42979;DHT22;28616;44.746;19.678;2023-04-03T04:14:51;7.00;99.90
42979;DHT22;28616;44.746;19.678;2023-04-03T04:17:17;6.90;99.90
42979;DHT22;28616;44.746;19.678;2023-04-03T04:19:43;6.90;99.90
42979;DHT22;28616;44.746;19.678;2023-04-03T04:22:09;6.90;99.90
42979;DHT22;28616;44.746;19.678;2023-04-03T04:24:34;6.80;99.90
42979;DHT22;28616;44.746;19.678;2023-04-03T04:27:00;6.70;99.90
42979;DHT22;28616;44.746;19.678;2023-04-03T04:29:26;6.70;99.90
42979;DHT22;28616;44.746;19.678;2023-04-03T04:31:51;6.60;99.90
42979;DHT22;28616;44.746;19.678;2023-04-03T04:34:17;6.60;99.90
42979;DHT22;28616;44.746;19.678;2023-04-03T04:36:43;6.50;99.90
42979;DHT22;28616;44.746;19.678;2023-04-03T04:39:09;6.30;99.90
42979;DHT22;28616;44.746;19.678;2023-04-03T04:41:34;6.20;99.90
42979;DHT22;28616;44.746;19.678;2023-04-03T04:44:00;6.20;99.90
42979;DHT22;28616;44.746;19.678;2023-04-03T04:46:26;6.10;99.90
42979;DHT22;28616;44.746;19.678;2023-04-03T04:48:52;6.00;99.90
42979;DHT22;28616;44.746;19.678;2023-04-03T04:51:18;6.00;99.90
42979;DHT22;28616;44.746;19.678;2023-04-03T04:53:44;6.00;99.90
42979;DHT22;28616;44.746;19.678;2023-04-03T04:56:10;6.10;99.90
42979;DHT22;28616;44.746;19.678;2023-04-03T04:58:36;6.10;99.90
42979;DHT22;28616;44.746;19.678;2023-04-03T05:01:04;6.00;99.90
42979;DHT22;28616;44.746;19.678;2023-04-03T05:03:31;6.00;99.90
42979;DHT22;28616;44.746;19.678;2023-04-03T05:05:57;6.10;99.90
42979;DHT22;28616;44.746;19.678;2023-04-03T05:08:22;6.10;99.90
42979;DHT22;28616;44.746;19.678;2023-04-03T05:10:48;6.10;99.90
42979;DHT22;28616;44.746;19.678;2023-04-03T05:13:14;6.20;99.90
42979;DHT22;28616;44.746;19.678;2023-04-03T05:15:40;6.20;99.90
42979;DHT22;28616;44.746;19.678;2023-04-03T05:18:06;6.20;99.90
42979;DHT22;28616;44.746;19.678;2023-04-03T05:20:33;6.20;99.90
42979;DHT22;28616;44.746;19.678;2023-04-03T05:22:59;6.00;99.90
42979;DHT22;28616;44.746;19.678;2023-04-03T05:25:25;5.90;99.90
42979;DHT22;28616;44.746;19.678;2023-04-03T05:27:51;5.90;99.90
42979;DHT22;28616;44.746;19.678;2023-04-03T05:30:17;5.80;99.90
42979;DHT22;28616;44.746;19.678;2023-04-03T05:32:43;5.70;99.90
42979;DHT22;28616;44.746;19.678;2023-04-03T05:35:10;5.70;99.90
42979;DHT22;28616;44.746;19.678;2023-04-03T05:37:35;5.70;99.90
42979;DHT22;28616;44.746;19.678;2023-04-03T05:40:06;5.70;99.90
42979;DHT22;28616;44.746;19.678;2023-04-03T05:42:32;5.70;99.90
42979;DHT22;28616;44.746;19.678;2023-04-03T05:44:58;5.70;99.90
42979;DHT22;28616;44.746;19.678;2023-04-03T05:47:24;5.70;99.90
42979;DHT22;28616;44.746;19.678;2023-04-03T05:49:50;5.60;99.90
42979;DHT22;28616;44.746;19.678;2023-04-03T05:52:21;5.60;99.90
42979;DHT22;28616;44.746;19.678;2023-04-03T05:54:48;5.50;99.90
42979;DHT22;28616;44.746;19.678;2023-04-03T05:57:15;5.50;99.90
42979;DHT22;28616;44.746;19.678;2023-04-03T05:59:42;5.50;99.90
42979;DHT22;28616;44.746;19.678;2023-04-03T06:02:11;5.50;99.90
42979;DHT22;28616;44.746;19.678;2023-04-03T06:04:37;5.50;99.90
42979;DHT22;28616;44.746;19.678;2023-04-03T06:07:03;5.50;99.90
42979;DHT22;28616;44.746;19.678;2023-04-03T06:09:30;5.40;99.90
42979;DHT22;28616;44.746;19.678;2023-04-03T06:11:56;5.40;99.90
42979;DHT22;28616;44.746;19.678;2023-04-03T06:14:24;5.40;99.90
42979;DHT22;28616;44.746;19.678;2023-04-03T06:16:50;5.50;99.90
42979;DHT22;28616;44.746;19.678;2023-04-03T06:19:16;5.40;99.90
42979;DHT22;28616;44.746;19.678;2023-04-03T06:21:41;5.40;99.90
42979;DHT22;28616;44.746;19.678;2023-04-03T06:24:08;5.40;99.90
42979;DHT22;28616;44.746;19.678;2023-04-03T06:26:34;5.40;99.90
42979;DHT22;28616;44.746;19.678;2023-04-03T06:28:59;5.30;99.90
42979;DHT22;28616;44.746;19.678;2023-04-03T06:31:25;5.30;99.90
42979;DHT22;28616;44.746;19.678;2023-04-03T06:33:51;5.30;99.90
42979;DHT22;28616;44.746;19.678;2023-04-03T06:36:19;5.30;99.90
42979;DHT22;28616;44.746;19.678;2023-04-03T06:38:46;5.40;99.90
42979;DHT22;28616;44.746;19.678;2023-04-03T06:41:12;5.30;99.90
42979;DHT22;28616;44.746;19.678;2023-04-03T06:43:38;5.30;99.90
42979;DHT22;28616;44.746;19.678;2023-04-03T06:46:03;5.30;99.90
42979;DHT22;28616;44.746;19.678;2023-04-03T06:48:30;5.40;99.90
42979;DHT22;28616;44.746;19.678;2023-04-03T06:50:56;5.30;99.90
42979;DHT22;28616;44.746;19.678;2023-04-03T06:53:22;5.30;99.90
42979;DHT22;28616;44.746;19.678;2023-04-03T06:55:48;5.40;99.90
42979;DHT22;28616;44.746;19.678;2023-04-03T06:58:13;5.40;99.90
42979;DHT22;28616;44.746;19.678;2023-04-03T07:00:40;5.40;99.90
42979;DHT22;28616;44.746;19.678;2023-04-03T07:03:06;5.40;99.90
42979;DHT22;28616;44.746;19.678;2023-04-03T07:05:34;5.50;99.90
42979;DHT22;28616;44.746;19.678;2023-04-03T07:08:00;5.50;99.90
42979;DHT22;28616;44.746;19.678;2023-04-03T07:10:26;5.50;99.90
42979;DHT22;28616;44.746;19.678;2023-04-03T07:12:52;5.40;99.90
42979;DHT22;28616;44.746;19.678;2023-04-03T07:15:18;5.50;99.90
42979;DHT22;28616;44.746;19.678;2023-04-03T07:17:44;5.50;99.90
42979;DHT22;28616;44.746;19.678;2023-04-03T07:20:10;5.60;99.90
42979;DHT22;28616;44.746;19.678;2023-04-03T07:22:36;5.50;99.90
42979;DHT22;28616;44.746;19.678;2023-04-03T07:25:02;5.50;99.90
42979;DHT22;28616;44.746;19.678;2023-04-03T07:27:28;5.60;99.90
42979;DHT22;28616;44.746;19.678;2023-04-03T07:29:54;5.70;99.90
42979;DHT22;28616;44.746;19.678;2023-04-03T07:32:21;5.60;99.90
42979;DHT22;28616;44.746;19.678;2023-04-03T07:34:47;5.70;99.90
42979;DHT22;28616;44.746;19.678;2023-04-03T07:37:12;5.80;99.90
42979;DHT22;28616;44.746;19.678;2023-04-03T07:39:38;5.80;99.90
42979;DHT22;28616;44.746;19.678;2023-04-03T07:42:04;5.90;99.90
42979;DHT22;28616;44.746;19.678;2023-04-03T07:44:30;6.00;99.90
42979;DHT22;28616;44.746;19.678;2023-04-03T07:46:56;6.00;99.90
42979;DHT22;28616;44.746;19.678;2023-04-03T07:49:22;6.10;99.90
42979;DHT22;28616;44.746;19.678;2023-04-03T07:51:51;6.20;99.90
42979;DHT22;28616;44.746;19.678;2023-04-03T07:54:18;6.30;99.90
42979;DHT22;28616;44.746;19.678;2023-04-03T07:56:44;6.50;99.90
42979;DHT22;28616;44.746;19.678;2023-04-03T07:59:10;6.60;99.90
42979;DHT22;28616;44.746;19.678;2023-04-03T08:01:37;6.60;99.90
42979;DHT22;28616;44.746;19.678;2023-04-03T08:04:03;6.60;99.90
42979;DHT22;28616;44.746;19.678;2023-04-03T08:06:30;6.70;99.90
42979;DHT22;28616;44.746;19.678;2023-04-03T08:08:57;6.80;99.90
42979;DHT22;28616;44.746;19.678;2023-04-03T08:11:24;6.70;99.90
42979;DHT22;28616;44.746;19.678;2023-04-03T08:13:52;6.70;99.90
42979;DHT22;28616;44.746;19.678;2023-04-03T08:16:20;6.80;99.90
42979;DHT22;28616;44.746;19.678;2023-04-03T08:18:48;6.90;99.90
42979;DHT22;28616;44.746;19.678;2023-04-03T08:21:14;6.90;99.90
42979;DHT22;28616;44.746;19.678;2023-04-03T08:23:40;6.90;99.90
42979;DHT22;28616;44.746;19.678;2023-04-03T08:26:12;6.90;99.90
42979;DHT22;28616;44.746;19.678;2023-04-03T08:28:39;7.00;99.90
42979;DHT22;28616;44.746;19.678;2023-04-03T08:31:06;7.00;99.90
42979;DHT22;28616;44.746;19.678;2023-04-03T08:33:33;7.00;99.90
42979;DHT22;28616;44.746;19.678;2023-04-03T08:36:01;7.10;99.90
42979;DHT22;28616;44.746;19.678;2023-04-03T08:38:27;7.10;99.90
42979;DHT22;28616;44.746;19.678;2023-04-03T08:46:17;7.30;99.90
42979;DHT22;28616;44.746;19.678;2023-04-03T08:48:48;7.40;99.90
42979;DHT22;28616;44.746;19.678;2023-04-03T08:51:18;7.50;99.90
42979;DHT22;28616;44.746;19.678;2023-04-03T08:54:06;7.70;99.90
42979;DHT22;28616;44.746;19.678;2023-04-03T08:56:40;7.60;99.90
42979;DHT22;28616;44.746;19.678;2023-04-03T08:59:11;7.60;99.90
42979;DHT22;28616;44.746;19.678;2023-04-03T09:01:40;7.60;99.90
42979;DHT22;28616;44.746;19.678;2023-04-03T09:04:12;7.60;99.90
42979;DHT22;28616;44.746;19.678;2023-04-03T09:06:39;7.60;99.90
42979;DHT22;28616;44.746;19.678;2023-04-03T09:09:43;7.60;99.90
42979;DHT22;28616;44.746;19.678;2023-04-03T09:12:25;7.80;99.90
42979;DHT22;28616;44.746;19.678;2023-04-03T09:15:15;7.90;99.90
42979;DHT22;28616;44.746;19.678;2023-04-03T09:23:33;8.10;99.90
42979;DHT22;28616;44.746;19.678;2023-04-03T09:26:16;8.20;99.90
42979;DHT22;28616;44.746;19.678;2023-04-03T09:28:43;8.40;99.90
42979;DHT22;28616;44.746;19.678;2023-04-03T09:31:22;8.70;99.90
42979;DHT22;28616;44.746;19.678;2023-04-03T09:33:50;8.90;99.90
42979;DHT22;28616;44.746;19.678;2023-04-03T09:39:14;8.90;99.90
42979;DHT22;28616;44.746;19.678;2023-04-03T09:41:40;9.10;99.90
42979;DHT22;28616;44.746;19.678;2023-04-03T09:44:21;9.10;99.90
42979;DHT22;28616;44.746;19.678;2023-04-03T09:46:47;9.20;99.90
42979;DHT22;28616;44.746;19.678;2023-04-03T09:49:13;9.10;99.90
42979;DHT22;28616;44.746;19.678;2023-04-03T09:51:39;9.50;99.90
42979;DHT22;28616;44.746;19.678;2023-04-03T09:54:38;10.10;99.90
42979;DHT22;28616;44.746;19.678;2023-04-03T09:57:12;10.50;99.90
42979;DHT22;28616;44.746;19.678;2023-04-03T09:59:46;10.50;99.90
42979;DHT22;28616;44.746;19.678;2023-04-03T10:02:35;10.30;99.90
42979;DHT22;28616;44.746;19.678;2023-04-03T10:05:02;10.50;99.90
42979;DHT22;28616;44.746;19.678;2023-04-03T10:07:36;10.50;99.90
42979;DHT22;28616;44.746;19.678;2023-04-03T10:12:40;9.80;99.90
42979;DHT22;28616;44.746;19.678;2023-04-03T10:15:16;9.90;99.90
42979;DHT22;28616;44.746;19.678;2023-04-03T10:17:53;9.90;99.90
42979;DHT22;28616;44.746;19.678;2023-04-03T10:20:59;9.90;99.90
42979;DHT22;28616;44.746;19.678;2023-04-03T10:23:33;9.50;99.90
42979;DHT22;28616;44.746;19.678;2023-04-03T10:26:37;9.20;99.90
42979;DHT22;28616;44.746;19.678;2023-04-03T10:34:58;9.00;99.90
42979;DHT22;28616;44.746;19.678;2023-04-03T10:37:32;9.40;99.90
42979;DHT22;28616;44.746;19.678;2023-04-03T10:40:39;9.40;99.90
42979;DHT22;28616;44.746;19.678;2023-04-03T10:45:50;9.50;99.90
42979;DHT22;28616;44.746;19.678;2023-04-03T10:48:33;9.50;99.90
42979;DHT22;28616;44.746;19.678;2023-04-03T10:54:08;10.60;99.90
42979;DHT22;28616;44.746;19.678;2023-04-03T10:56:43;10.70;99.90
42979;DHT22;28616;44.746;19.678;2023-04-03T10:59:23;10.70;99.90
42979;DHT22;28616;44.746;19.678;2023-04-03T11:02:00;10.20;99.90
42979;DHT22;28616;44.746;19.678;2023-04-03T11:04:31;10.00;99.90
42979;DHT22;28616;44.746;19.678;2023-04-03T11:07:10;9.70;99.90
42979;DHT22;28616;44.746;19.678;2023-04-03T11:09:41;9.50;99.90
42979;DHT22;28616;44.746;19.678;2023-04-03T11:12:42;9.90;99.90
42979;DHT22;28616;44.746;19.678;2023-04-03T11:15:17;10.50;99.90
42979;DHT22;28616;44.746;19.678;2023-04-03T11:17:55;10.70;99.90
42979;DHT22;28616;44.746;19.678;2023-04-03T11:20:29;10.30;99.90
42979;DHT22;28616;44.746;19.678;2023-04-03T11:23:09;10.00;99.90
42979;DHT22;28616;44.746;19.678;2023-04-03T11:25:41;9.60;99.90
42979;DHT22;28616;44.746;19.678;2023-04-03T11:28:13;9.70;99.90
42979;DHT22;28616;44.746;19.678;2023-04-03T11:36:27;9.70;99.90
42979;DHT22;28616;44.746;19.678;2023-04-03T11:38:56;9.60;99.90
42979;DHT22;28616;44.746;19.678;2023-04-03T11:41:31;9.50;99.90
42979;DHT22;28616;44.746;19.678;2023-04-03T11:43:59;9.30;99.90
42979;DHT22;28616;44.746;19.678;2023-04-03T11:46:55;9.50;99.90
42979;DHT22;28616;44.746;19.678;2023-04-03T11:49:54;9.50;99.90
42979;DHT22;28616;44.746;19.678;2023-04-03T12:00:50;9.40;99.90
42979;DHT22;28616;44.746;19.678;2023-04-03T12:08:48;9.20;99.90
42979;DHT22;28616;44.746;19.678;2023-04-03T12:11:31;9.20;99.90
42979;DHT22;28616;44.746;19.678;2023-04-03T12:19:30;9.80;99.90
42979;DHT22;28616;44.746;19.678;2023-04-03T12:35:16;9.80;99.90
42979;DHT22;28616;44.746;19.678;2023-04-03T12:43:28;10.10;99.90
42979;DHT22;28616;44.746;19.678;2023-04-03T12:51:14;9.90;99.90
42979;DHT22;28616;44.746;19.678;2023-04-03T12:53:41;9.90;99.90
42979;DHT22;28616;44.746;19.678;2023-04-03T12:56:30;9.80;99.90
42979;DHT22;28616;44.746;19.678;2023-04-03T12:59:23;9.50;99.90
42979;DHT22;28616;44.746;19.678;2023-04-03T13:01:58;9.50;99.90
42979;DHT22;28616;44.746;19.678;2023-04-03T13:04:24;9.40;99.90
42979;DHT22;28616;44.746;19.678;2023-04-03T13:06:50;9.40;99.90
42979;DHT22;28616;44.746;19.678;2023-04-03T13:09:28;9.40;99.90
42979;DHT22;28616;44.746;19.678;2023-04-03T13:12:03;9.40;99.90
42979;DHT22;28616;44.746;19.678;2023-04-03T13:14:34;9.40;99.90
42979;DHT22;28616;44.746;19.678;2023-04-03T13:19:30;9.50;99.90
42979;DHT22;28616;44.746;19.678;2023-04-03T13:22:06;9.50;99.90
42979;DHT22;28616;44.746;19.678;2023-04-03T13:24:35;9.50;99.90
42979;DHT22;28616;44.746;19.678;2023-04-03T13:27:03;9.50;99.90
42979;DHT22;28616;44.746;19.678;2023-04-03T13:29:36;9.50;99.90
42979;DHT22;28616;44.746;19.678;2023-04-03T13:32:03;9.50;99.90
42979;DHT22;28616;44.746;19.678;2023-04-03T13:34:45;9.50;99.90
42979;DHT22;28616;44.746;19.678;2023-04-03T13:37:24;9.40;99.90
42979;DHT22;28616;44.746;19.678;2023-04-03T13:42:36;9.50;99.90
42979;DHT22;28616;44.746;19.678;2023-04-03T13:45:21;9.40;99.90
42979;DHT22;28616;44.746;19.678;2023-04-03T13:47:51;9.40;99.90
42979;DHT22;28616;44.746;19.678;2023-04-03T13:50:21;9.40;99.90
42979;DHT22;28616;44.746;19.678;2023-04-03T13:53:01;9.40;99.90
42979;DHT22;28616;44.746;19.678;2023-04-03T13:55:30;9.40;99.90
42979;DHT22;28616;44.746;19.678;2023-04-03T13:58:23;9.40;99.90
42979;DHT22;28616;44.746;19.678;2023-04-03T14:03:23;9.50;99.90
42979;DHT22;28616;44.746;19.678;2023-04-03T14:05:50;9.40;99.90
42979;DHT22;28616;44.746;19.678;2023-04-03T14:08:16;9.40;99.90
42979;DHT22;28616;44.746;19.678;2023-04-03T14:10:42;9.40;99.90
42979;DHT22;28616;44.746;19.678;2023-04-03T14:13:12;9.40;99.90
42979;DHT22;28616;44.746;19.678;2023-04-03T14:15:39;9.40;99.90
42979;DHT22;28616;44.746;19.678;2023-04-03T14:18:05;9.40;99.90
42979;DHT22;28616;44.746;19.678;2023-04-03T14:20:31;9.30;99.90
42979;DHT22;28616;44.746;19.678;2023-04-03T14:22:56;9.30;99.90
42979;DHT22;28616;44.746;19.678;2023-04-03T14:25:22;9.30;99.90
42979;DHT22;28616;44.746;19.678;2023-04-03T14:27:50;9.20;99.90
42979;DHT22;28616;44.746;19.678;2023-04-03T14:30:21;9.30;99.90
42979;DHT22;28616;44.746;19.678;2023-04-03T14:32:47;9.20;99.90
42979;DHT22;28616;44.746;19.678;2023-04-03T14:35:14;9.20;99.90
42979;DHT22;28616;44.746;19.678;2023-04-03T14:37:41;9.20;99.90
42979;DHT22;28616;44.746;19.678;2023-04-03T14:40:08;9.20;99.90
42979;DHT22;28616;44.746;19.678;2023-04-03T14:42:37;9.20;99.90
42979;DHT22;28616;44.746;19.678;2023-04-03T14:45:06;9.10;99.90
42979;DHT22;28616;44.746;19.678;2023-04-03T14:47:32;9.20;99.90
42979;DHT22;28616;44.746;19.678;2023-04-03T14:50:03;9.20;99.90
42979;DHT22;28616;44.746;19.678;2023-04-03T14:52:35;9.30;99.90
42979;DHT22;28616;44.746;19.678;2023-04-03T14:55:02;9.20;99.90
42979;DHT22;28616;44.746;19.678;2023-04-03T14:57:29;9.20;99.90
42979;DHT22;28616;44.746;19.678;2023-04-03T14:59:56;9.20;99.90
42979;DHT22;28616;44.746;19.678;2023-04-03T15:02:31;9.20;99.90
42979;DHT22;28616;44.746;19.678;2023-04-03T15:04:58;9.20;99.90
42979;DHT22;28616;44.746;19.678;2023-04-03T15:07:27;9.20;99.90
42979;DHT22;28616;44.746;19.678;2023-04-03T15:09:54;9.20;99.90
42979;DHT22;28616;44.746;19.678;2023-04-03T15:12:23;9.20;99.90
42979;DHT22;28616;44.746;19.678;2023-04-03T15:14:49;9.20;99.90
42979;DHT22;28616;44.746;19.678;2023-04-03T15:17:17;9.20;99.90
42979;DHT22;28616;44.746;19.678;2023-04-03T15:19:44;9.20;99.90
42979;DHT22;28616;44.746;19.678;2023-04-03T15:22:20;9.20;99.90
42979;DHT22;28616;44.746;19.678;2023-04-03T15:24:46;9.20;99.90
42979;DHT22;28616;44.746;19.678;2023-04-03T15:27:13;9.20;99.90
42979;DHT22;28616;44.746;19.678;2023-04-03T15:29:40;9.20;99.90
42979;DHT22;28616;44.746;19.678;2023-04-03T15:32:06;9.20;99.90
42979;DHT22;28616;44.746;19.678;2023-04-03T15:34:32;9.20;99.90
42979;DHT22;28616;44.746;19.678;2023-04-03T15:36:58;9.20;99.90
42979;DHT22;28616;44.746;19.678;2023-04-03T15:39:25;9.20;99.90
42979;DHT22;28616;44.746;19.678;2023-04-03T15:41:52;9.30;99.90
42979;DHT22;28616;44.746;19.678;2023-04-03T15:44:19;9.30;99.90
42979;DHT22;28616;44.746;19.678;2023-04-03T15:46:46;9.30;99.90
42979;DHT22;28616;44.746;19.678;2023-04-03T15:49:14;9.40;99.90
42979;DHT22;28616;44.746;19.678;2023-04-03T15:51:40;9.40;99.90
42979;DHT22;28616;44.746;19.678;2023-04-03T15:54:06;9.40;99.90
42979;DHT22;28616;44.746;19.678;2023-04-03T15:56:32;9.40;99.90
42979;DHT22;28616;44.746;19.678;2023-04-03T15:58:57;9.50;99.90
42979;DHT22;28616;44.746;19.678;2023-04-03T16:01:23;9.50;99.90
42979;DHT22;28616;44.746;19.678;2023-04-03T16:03:49;9.50;99.90
42979;DHT22;28616;44.746;19.678;2023-04-03T16:06:17;9.50;99.90
42979;DHT22;28616;44.746;19.678;2023-04-03T16:08:44;9.50;99.90
42979;DHT22;28616;44.746;19.678;2023-04-03T16:11:12;9.50;99.90
42979;DHT22;28616;44.746;19.678;2023-04-03T16:13:37;9.50;99.90
42979;DHT22;28616;44.746;19.678;2023-04-03T16:16:04;9.50;99.90
42979;DHT22;28616;44.746;19.678;2023-04-03T16:18:30;9.50;99.90
42979;DHT22;28616;44.746;19.678;2023-04-03T16:20:57;9.50;99.90
42979;DHT22;28616;44.746;19.678;2023-04-03T16:23:23;9.50;99.90
42979;DHT22;28616;44.746;19.678;2023-04-03T16:25:49;9.50;99.90
42979;DHT22;28616;44.746;19.678;2023-04-03T16:28:17;9.50;99.90
42979;DHT22;28616;44.746;19.678;2023-04-03T16:30:44;9.50;99.90
42979;DHT22;28616;44.746;19.678;2023-04-03T16:33:11;9.50;99.90
42979;DHT22;28616;44.746;19.678;2023-04-03T16:35:37;9.40;99.90
42979;DHT22;28616;44.746;19.678;2023-04-03T16:38:04;9.50;99.90
42979;DHT22;28616;44.746;19.678;2023-04-03T16:40:29;9.50;99.90
42979;DHT22;28616;44.746;19.678;2023-04-03T16:42:55;9.60;98.70
42979;DHT22;28616;44.746;19.678;2023-04-03T16:45:21;9.60;99.90
42979;DHT22;28616;44.746;19.678;2023-04-03T16:47:47;9.60;98.30
42979;DHT22;28616;44.746;19.678;2023-04-03T16:50:13;9.60;97.20
42979;DHT22;28616;44.746;19.678;2023-04-03T16:52:39;9.60;96.50
42979;DHT22;28616;44.746;19.678;2023-04-03T16:55:05;9.60;97.40
42979;DHT22;28616;44.746;19.678;2023-04-03T16:57:31;9.60;95.80
42979;DHT22;28616;44.746;19.678;2023-04-03T16:59:57;9.60;94.90
42979;DHT22;28616;44.746;19.678;2023-04-03T17:02:23;9.60;94.70
42979;DHT22;28616;44.746;19.678;2023-04-03T17:04:53;9.60;93.50
42979;DHT22;28616;44.746;19.678;2023-04-03T17:07:19;9.50;93.10
42979;DHT22;28616;44.746;19.678;2023-04-03T17:09:46;9.50;92.40